Time;durP1;ratioP1;P1;durP2;ratioP2;P2;SDS_P1;SDS_P2;PMS_P1;PMS_P2;Temp;Humidity;BMP_temperature;BMP_pressure;BME280_temperature;BME280_humidity;BME280_pressure;Samples;Min_cycle;Max_cycle;Signal;HPM_P1;HPM_P2
2022/12/20 00:00:42;;;;;;;42.07;17.30;;;;;;;-141.97;93.02;47847.75;5011969;28;20437;-80
2022/12/20 00:03:07;;;;;;;41.80;17.53;;;;;;;-141.97;93.37;47859.28;5011932;28;20221;-80
2022/12/20 00:05:36;;;;;;;42.77;17.03;;;;;;;-141.97;93.62;47874.69;5011587;28;21162;-80
2022/12/20 00:08:01;;;;;;;32.50;14.20;;;;;;;-141.97;93.54;47849.69;5010397;28;20171;-80
2022/12/20 00:10:26;;;;;;;39.67;16.37;;;;;;;-141.97;94.24;47845.84;5011709;28;20444;-81
2022/12/20 00:12:52;;;;;;;32.30;14.13;;;;;;;-141.97;94.03;47863.13;5011728;28;20194;-79
2022/12/20 00:15:17;;;;;;;35.50;14.73;;;;;;;-141.97;94.00;47884.28;5011486;28;20170;-80
2022/12/20 00:17:42;;;;;;;33.30;15.13;;;;;;;-141.97;94.35;47870.81;5010452;28;20297;-80
2022/12/20 00:20:08;;;;;;;29.47;13.80;;;;;;;-141.97;94.35;47884.28;5011323;28;20167;-79
2022/12/20 00:22:34;;;;;;;32.33;13.93;;;;;;;-141.97;95.18;47865.06;5011517;28;20249;-80
2022/12/20 00:24:59;;;;;;;31.63;14.50;;;;;;;-141.97;95.83;47861.22;5012288;28;20546;-80
2022/12/20 00:27:25;;;;;;;31.87;13.63;;;;;;;-141.97;96.78;47865.06;5011726;28;20680;-80
2022/12/20 00:29:50;;;;;;;28.93;13.07;;;;;;;-141.97;96.78;47893.91;5012505;28;20169;-80
2022/12/20 00:32:15;;;;;;;35.53;14.93;;;;;;;-141.97;97.32;47880.44;5012238;28;20159;-80
2022/12/20 00:34:41;;;;;;;31.73;14.70;;;;;;;-141.97;97.50;47876.59;5011872;28;20624;-80
2022/12/20 00:37:06;;;;;;;34.73;15.83;;;;;;;-141.97;99.33;47851.59;5012777;28;20218;-80
2022/12/20 00:39:31;;;;;;;35.40;15.93;;;;;;;-141.97;100.00;47865.06;5016984;28;20557;-80
2022/12/20 00:41:57;;;;;;;32.03;15.00;;;;;;;-141.97;100.00;47851.59;5016843;28;20163;-80
2022/12/20 00:44:22;;;;;;;38.13;16.97;;;;;;;-141.97;100.00;47874.69;5016618;28;20492;-80
2022/12/20 00:46:47;;;;;;;40.33;16.80;;;;;;;-141.97;100.00;47884.28;5015932;28;20194;-80
2022/12/20 00:49:14;;;;;;;45.57;18.00;;;;;;;-141.97;100.00;47893.91;5015774;28;20221;-80
2022/12/20 00:51:39;;;;;;;39.90;17.80;;;;;;;-141.97;100.00;47891.97;5015272;28;20181;-80
2022/12/20 00:54:04;;;;;;;37.50;17.50;;;;;;;-141.97;100.00;47830.47;5015507;28;20763;-80
2022/12/20 00:56:30;;;;;;;39.57;16.53;;;;;;;-141.97;100.00;47847.75;5015380;28;20154;-80
2022/12/20 00:58:58;;;;;;;35.33;16.27;;;;;;;-141.97;100.00;47874.69;5015563;28;20171;-80
2022/12/20 01:01:27;;;;;;;35.70;16.00;;;;;;;-141.97;100.00;47865.06;5015513;28;20638;-80
2022/12/20 01:03:53;;;;;;;37.53;15.73;;;;;;;-141.97;100.00;47884.28;5015376;28;20483;-80
2022/12/20 01:06:19;;;;;;;34.97;13.50;;;;;;;-141.97;100.00;47859.28;5013943;28;20993;-80
2022/12/20 01:08:45;;;;;;;33.53;14.03;;;;;;;-141.97;100.00;47876.59;5015321;28;20865;-80
2022/12/20 01:11:13;;;;;;;32.13;13.00;;;;;;;-141.97;100.00;47861.22;5015200;28;20409;-80
2022/12/20 01:13:41;;;;;;;35.20;13.63;;;;;;;-141.97;100.00;47886.22;5014967;28;20258;-80
2022/12/20 01:16:16;;;;;;;33.17;13.30;;;;;;;-141.97;100.00;47876.59;5014990;28;20536;-80
2022/12/20 01:18:42;;;;;;;34.67;13.63;;;;;;;-141.97;100.00;47842.00;5014923;28;20452;-81
2022/12/20 01:21:09;;;;;;;30.60;11.93;;;;;;;-141.97;100.00;47838.16;5014811;28;20409;-80
2022/12/20 01:23:35;;;;;;;51.50;17.87;;;;;;;-141.97;100.00;47842.00;5014784;28;20163;-80
2022/12/20 01:26:03;;;;;;;52.70;18.27;;;;;;;-141.97;100.00;47843.91;5014522;28;20468;-80
2022/12/20 01:28:30;;;;;;;43.83;15.87;;;;;;;-141.97;100.00;47830.47;5014720;28;20401;-80
2022/12/20 01:30:56;;;;;;;33.90;13.90;;;;;;;-141.97;100.00;47863.13;5014731;28;20850;-80
2022/12/20 01:33:22;;;;;;;35.70;13.33;;;;;;;-141.97;100.00;47868.91;5015340;28;20409;-80
2022/12/20 01:35:54;;;;;;;34.33;13.77;;;;;;;-141.97;100.00;47849.69;5017968;28;20167;-80
2022/12/20 01:38:20;;;;;;;35.45;14.25;;;;;;;-141.97;100.00;47865.06;5015831;28;20218;-80
2022/12/20 01:40:45;;;;;;;36.67;13.33;;;;;;;-141.97;100.00;47882.38;5015008;28;20178;-80
2022/12/20 01:43:13;;;;;;;33.90;13.33;;;;;;;-141.97;100.00;47859.28;5014652;28;20190;-80
2022/12/20 01:45:39;;;;;;;34.03;13.57;;;;;;;-141.97;100.00;47843.91;5014400;28;20692;-80
2022/12/20 01:48:04;;;;;;;32.87;11.67;;;;;;;-141.97;100.00;47876.59;5014568;28;20405;-80
2022/12/20 01:50:30;;;;;;;31.23;12.90;;;;;;;-141.97;100.00;47842.00;5013655;28;20190;-80
2022/12/20 01:52:57;;;;;;;34.80;12.77;;;;;;;-141.97;100.00;47865.06;5014366;28;20171;-80
2022/12/20 01:55:26;;;;;;;33.17;13.02;;;;;;;-141.97;100.00;47849.69;5014442;28;20162;-80
2022/12/20 01:57:51;;;;;;;33.25;12.85;;;;;;;-141.97;100.00;47855.44;5043546;28;20637;-80
2022/12/20 02:00:17;;;;;;;28.80;12.67;;;;;;;-141.97;100.00;47863.13;5053613;28;20165;-80
2022/12/20 02:02:48;;;;;;;37.80;13.23;;;;;;;-141.97;100.00;47878.53;5053720;28;20189;-80
2022/12/20 02:05:14;;;;;;;34.67;13.83;;;;;;;-141.97;100.00;47884.28;5053725;28;20443;-80
2022/12/20 02:07:42;;;;;;;33.87;13.70;;;;;;;-141.97;100.00;47868.91;5054136;28;20400;-80
2022/12/20 02:10:10;;;;;;;33.70;12.83;;;;;;;-141.97;100.00;47893.91;5065995;28;20467;-80
2022/12/20 02:12:43;;;;;;;32.67;12.37;;;;;;;-141.97;100.00;47880.44;5063539;28;20407;-80
2022/12/20 02:15:34;;;;;;;34.83;12.93;;;;;;;-141.97;100.00;47899.66;5059252;28;20429;-80
2022/12/20 02:18:22;;;;;;;35.22;12.65;;;;;;;-141.97;100.00;47828.53;5057529;28;20408;-80
2022/12/20 02:20:53;;;;;;;29.63;11.70;;;;;;;-141.97;100.00;47861.22;5054380;28;20172;-80
2022/12/20 02:23:33;;;;;;;31.00;12.30;;;;;;;-141.97;100.00;47911.19;5055803;28;20169;-80
2022/12/20 02:26:20;;;;;;;36.50;13.25;;;;;;;-141.97;100.00;47874.69;5057515;28;20649;-80
2022/12/20 02:29:22;;;;;;;36.57;13.93;;;;;;;-141.97;100.00;47859.28;5071727;28;20170;-80
2022/12/20 02:32:01;;;;;;;37.63;13.25;;;;;;;-141.97;100.00;47859.28;5059393;28;20460;-80
2022/12/20 02:34:30;;;;;;;35.83;13.07;;;;;;;-141.97;100.00;47822.78;5056321;28;20208;-80
2022/12/20 02:36:56;;;;;;;33.37;12.77;;;;;;;-141.97;100.00;47866.97;5053460;28;20567;-80
2022/12/20 02:39:25;;;;;;;33.03;12.93;;;;;;;-141.97;100.00;47872.75;5053133;28;20491;-80
2022/12/20 02:42:13;;;;;;;33.47;13.13;;;;;;;-141.97;100.00;47865.06;5052871;28;20157;-80
2022/12/20 02:45:16;;;;;;;38.03;14.35;;;;;;;-141.97;100.00;47890.06;5051943;28;20450;-80
2022/12/20 02:47:54;;;;;;;32.30;13.38;;;;;;;-141.97;100.00;47861.22;5052591;28;20509;-80
2022/12/20 02:50:30;;;;;;;36.22;13.68;;;;;;;-141.97;100.00;47859.28;5052559;28;20584;-80
2022/12/20 02:52:57;;;;;;;35.65;13.75;;;;;;;-141.97;100.00;47853.53;5052702;28;20162;-80
2022/12/20 02:55:34;;;;;;;37.38;14.25;;;;;;;-141.97;100.00;47842.00;5052553;28;20176;-80
2022/12/20 02:58:09;;;;;;;36.55;15.25;;;;;;;-141.97;100.00;47859.28;5052674;28;20157;-80
2022/12/20 03:00:39;;;;;;;34.72;14.07;;;;;;;-141.97;100.00;47843.91;5052841;28;20157;-80
2022/12/20 03:03:23;;;;;;;34.97;14.00;;;;;;;-141.97;100.00;47865.06;5051520;28;20618;-80
2022/12/20 03:05:52;;;;;;;36.40;14.10;;;;;;;-141.97;100.00;47865.06;5052606;28;20680;-80
2022/12/20 03:08:19;;;;;;;34.83;13.45;;;;;;;-141.97;100.00;47851.59;5052550;28;20157;-80
2022/12/20 03:10:45;;;;;;;41.83;16.65;;;;;;;-141.97;100.00;47861.22;5052369;28;20168;-80
2022/12/20 03:13:10;;;;;;;42.80;17.53;;;;;;;-141.97;100.00;47888.13;5052354;28;20157;-80
2022/12/20 03:15:36;;;;;;;46.63;19.90;;;;;;;-141.97;100.00;47897.75;5052141;28;20166;-80
2022/12/20 03:18:02;;;;;;;135.30;40.20;;;;;;;-141.97;100.00;47918.88;5052102;28;20178;-80
2022/12/20 03:20:28;;;;;;;139.02;43.85;;;;;;;-141.97;100.00;47845.84;5052438;28;20162;-80
2022/12/20 03:22:53;;;;;;;131.03;37.27;;;;;;;-141.97;100.00;47857.38;5052127;28;20567;-80
2022/12/20 03:25:19;;;;;;;73.70;24.30;;;;;;;-141.97;100.00;47851.59;5052004;28;20560;-80
2022/12/20 03:27:44;;;;;;;45.83;17.23;;;;;;;-141.97;100.00;47840.06;5051990;28;20162;-80
2022/12/20 03:30:10;;;;;;;37.57;15.70;;;;;;;-141.97;100.00;47838.16;5051965;28;20154;-79
2022/12/20 03:32:36;;;;;;;40.60;15.97;;;;;;;-141.97;100.00;47851.59;5052054;28;20157;-80
2022/12/20 03:35:01;;;;;;;43.10;17.83;;;;;;;-141.97;100.00;47824.69;5052530;28;20629;-80
2022/12/20 03:37:26;;;;;;;40.37;16.10;;;;;;;-141.97;100.00;47822.78;5052127;28;20282;-80
2022/12/20 03:39:52;;;;;;;80.53;31.23;;;;;;;-141.97;100.00;47857.38;5051987;28;20200;-80
2022/12/20 03:42:17;;;;;;;78.40;31.20;;;;;;;-141.97;100.00;47853.53;5051811;28;20248;-80
2022/12/20 03:44:43;;;;;;;131.03;45.87;;;;;;;-141.97;100.00;47865.06;5051802;28;20543;-80
2022/12/20 03:47:08;;;;;;;94.73;37.43;;;;;;;-141.97;100.00;47843.91;5033579;28;20236;-80
2022/12/20 03:49:33;;;;;;;52.77;21.73;;;;;;;-141.97;100.00;47884.28;5051814;28;20196;-80
2022/12/20 03:51:59;;;;;;;71.33;27.43;;;;;;;-141.97;100.00;47886.22;5051829;28;20169;-80
2022/12/20 03:54:25;;;;;;;69.57;27.07;;;;;;;-141.97;100.00;47861.22;5051555;28;20269;-80
2022/12/20 03:56:50;;;;;;;49.80;21.17;;;;;;;-141.97;100.00;47832.38;5052222;28;20157;-80
2022/12/20 03:59:15;;;;;;;78.67;29.10;;;;;;;-141.97;100.00;47849.69;5055768;28;20248;-80
2022/12/20 04:01:41;;;;;;;74.00;25.97;;;;;;;-141.97;100.00;47861.22;5051675;28;20161;-80
2022/12/20 04:04:06;;;;;;;55.00;21.50;;;;;;;-141.97;100.00;47853.53;5051512;28;20181;-80
2022/12/20 04:06:31;;;;;;;46.53;18.03;;;;;;;-141.97;100.00;47880.44;5051339;28;20680;-79
2022/12/20 04:08:57;;;;;;;41.30;17.83;;;;;;;-141.97;100.00;47842.00;5051192;28;20479;-80
2022/12/20 04:11:22;;;;;;;44.40;17.80;;;;;;;-141.97;100.00;47849.69;5051166;28;20165;-80
2022/12/20 04:13:50;;;;;;;38.37;16.03;;;;;;;-141.97;100.00;47847.75;5051085;28;20189;-80
2022/12/20 04:16:22;;;;;;;40.53;17.55;;;;;;;-141.97;100.00;47832.38;5051859;28;20643;-80
2022/12/20 04:18:47;;;;;;;43.03;18.30;;;;;;;-141.97;100.00;47861.22;5051396;28;20168;-80
2022/12/20 04:21:13;;;;;;;54.37;21.47;;;;;;;-141.97;100.00;47865.06;5051211;28;20158;-80
2022/12/20 04:23:40;;;;;;;38.83;14.55;;;;;;;-141.97;100.00;47899.66;5051338;28;20157;-80
2022/12/20 04:26:07;;;;;;;49.55;19.40;;;;;;;-141.97;100.00;47830.47;5051897;28;20712;-79
2022/12/20 04:28:34;;;;;;;40.23;16.20;;;;;;;-141.97;100.00;47834.31;5052784;28;20257;-80
2022/12/20 04:31:00;;;;;;;48.45;18.75;;;;;;;-141.97;100.00;47880.44;5052739;28;20430;-80
2022/12/20 04:33:26;;;;;;;55.73;21.57;;;;;;;-141.97;100.00;47849.69;5051239;28;20173;-79
2022/12/20 04:35:52;;;;;;;51.78;18.52;;;;;;;-141.97;100.00;47870.81;5051126;28;20439;-79
2022/12/20 04:38:19;;;;;;;39.40;16.00;;;;;;;-141.97;100.00;47866.97;5050972;28;20241;-79
2022/12/20 04:40:44;;;;;;;38.50;13.65;;;;;;;-141.97;100.00;47851.59;5050880;28;20632;-79
2022/12/20 04:43:10;;;;;;;42.10;15.63;;;;;;;-141.97;100.00;47884.28;5055793;28;20166;-80
2022/12/20 04:45:35;;;;;;;45.57;15.40;;;;;;;-141.97;100.00;47842.00;5052547;28;20200;-79
2022/12/20 04:48:00;;;;;;;44.90;16.90;;;;;;;-141.97;100.00;47861.22;5051329;28;20169;-80
2022/12/20 04:50:26;;;;;;;37.93;15.70;;;;;;;-141.97;100.00;47868.91;5051112;28;20173;-79
2022/12/20 04:55:37;;;;;;;38.80;14.87;;;;;;;-141.97;100.00;47845.84;5051873;28;20227;-79
2022/12/20 04:58:02;;;;;;;36.37;14.93;;;;;;;-141.97;100.00;47888.13;5050935;28;20400;-79
2022/12/20 05:00:28;;;;;;;41.20;16.00;;;;;;;-141.97;100.00;47861.22;5050909;28;20408;-80
2022/12/20 05:02:53;;;;;;;38.20;14.93;;;;;;;-141.97;100.00;47857.38;5050769;28;20589;-81
2022/12/20 05:05:19;;;;;;;41.90;16.73;;;;;;;-141.97;100.00;47876.59;5050608;28;20169;-80
2022/12/20 05:07:44;;;;;;;45.23;18.07;;;;;;;-141.97;100.00;47859.28;5050949;28;20208;-80
2022/12/20 05:10:10;;;;;;;46.47;17.43;;;;;;;-141.97;100.00;47876.59;5050634;28;20185;-80
2022/12/20 05:12:35;;;;;;;42.23;16.67;;;;;;;-141.97;100.00;47845.84;5051091;28;20625;-80
2022/12/20 05:15:00;;;;;;;37.97;16.40;;;;;;;-141.97;100.00;47838.16;5050808;28;20307;-79
2022/12/20 05:17:26;;;;;;;46.33;16.93;;;;;;;-141.97;100.00;47861.22;5050624;28;20634;-79
2022/12/20 05:19:51;;;;;;;43.77;18.77;;;;;;;-141.97;100.00;47861.22;5050664;28;20165;-79
2022/12/20 05:27:44;;;;;;;78.90;28.63;;;;;;;-141.97;100.00;47842.00;5054393;28;20202;-79
2022/12/20 05:30:10;;;;;;;103.43;41.33;;;;;;;-141.97;100.00;47853.53;5054615;28;20614;-79
2022/12/20 05:32:35;;;;;;;62.90;24.60;;;;;;;-141.97;100.00;47842.00;5054341;28;20165;-79
2022/12/20 05:35:01;;;;;;;57.70;20.90;;;;;;;-141.97;100.00;47884.28;5054186;28;20161;-80
2022/12/20 05:37:26;;;;;;;54.20;18.83;;;;;;;-141.97;100.00;47853.53;5054068;28;20300;-80
2022/12/20 05:39:52;;;;;;;53.03;19.57;;;;;;;-141.97;100.00;47845.84;5054487;28;20169;-79
2022/12/20 05:42:17;;;;;;;51.40;19.23;;;;;;;-141.97;100.00;47891.97;5054290;28;20208;-79
2022/12/20 05:44:42;;;;;;;51.10;19.83;;;;;;;-141.97;100.00;47870.81;5054029;28;20221;-79
2022/12/20 05:47:08;;;;;;;54.90;20.43;;;;;;;-141.97;100.00;47882.38;5054380;28;20633;-79
2022/12/20 05:49:33;;;;;;;53.27;21.17;;;;;;;-141.97;100.00;47861.22;5054179;28;20165;-80
2022/12/20 05:52:00;;;;;;;57.00;22.23;;;;;;;-141.97;100.00;47876.59;5054171;28;20162;-80
2022/12/20 05:54:26;;;;;;;63.35;24.45;;;;;;;-141.97;100.00;47851.59;5054214;28;20158;-80
2022/12/20 05:56:51;;;;;;;139.33;54.00;;;;;;;-141.97;100.00;47861.22;5017104;28;20568;-78
2022/12/20 05:59:17;;;;;;;156.97;55.30;;;;;;;-141.97;100.00;47870.81;5042968;28;20185;-78
2022/12/20 06:01:42;;;;;;;153.63;55.08;;;;;;;-141.97;100.00;47868.91;5041415;28;20178;-80
2022/12/20 06:04:08;;;;;;;176.73;58.70;;;;;;;-141.97;100.00;47876.59;5039358;28;20200;-79
2022/12/20 06:06:33;;;;;;;225.47;85.43;;;;;;;-141.97;100.00;47859.28;5037486;28;20236;-79
2022/12/20 06:08:59;;;;;;;358.50;136.97;;;;;;;-141.97;100.00;47888.13;5022818;28;20805;-79
2022/12/20 06:11:24;;;;;;;371.20;138.77;;;;;;;-141.97;100.00;47884.28;5012620;28;20175;-79
2022/12/20 06:13:50;;;;;;;367.03;136.37;;;;;;;-141.97;100.00;47870.81;5014371;28;20390;-79
2022/12/20 06:16:15;;;;;;;385.90;123.43;;;;;;;-141.97;100.00;47870.81;5048744;28;20188;-79
2022/12/20 06:18:40;;;;;;;212.37;61.53;;;;;;;-141.97;100.00;47853.53;5058503;28;20189;-79
2022/12/20 06:21:06;;;;;;;87.87;30.83;;;;;;;-141.97;100.00;47861.22;5038110;28;20217;-79
2022/12/20 06:23:33;;;;;;;107.87;38.73;;;;;;;-141.97;100.00;47861.22;5015648;28;20178;-79
2022/12/20 06:25:58;;;;;;;145.40;44.33;;;;;;;-141.97;100.00;47865.06;5030261;28;20197;-79
2022/12/20 06:28:23;;;;;;;207.50;59.37;;;;;;;-141.97;100.00;47880.44;5029859;28;20200;-79
2022/12/20 06:30:53;;;;;;;183.23;52.53;;;;;;;-141.97;100.00;47865.06;5030173;28;20186;-79
2022/12/20 06:33:19;;;;;;;276.77;69.18;;;;;;;-141.97;100.00;47884.28;5029696;28;20272;-79
2022/12/20 06:35:44;;;;;;;203.77;59.87;;;;;;;-141.97;100.00;47888.13;5029704;28;20278;-79
2022/12/20 06:38:11;;;;;;;177.87;57.67;;;;;;;-141.97;100.00;47882.38;5029512;28;20233;-79
2022/12/20 06:40:36;;;;;;;201.40;63.27;;;;;;;-141.97;100.00;47922.72;5029544;28;20190;-80
2022/12/20 06:43:02;;;;;;;324.60;88.80;;;;;;;-141.97;100.00;47882.38;5029878;28;20784;-79
2022/12/20 06:45:27;;;;;;;326.27;100.13;;;;;;;-141.97;100.00;47878.53;5030243;28;20684;-79
2022/12/20 06:47:52;;;;;;;189.47;71.97;;;;;;;-141.97;100.00;47897.75;5011301;28;20225;-79
2022/12/20 06:50:18;;;;;;;146.13;51.90;;;;;;;-141.97;100.00;47888.13;5028943;28;20553;-79
2022/12/20 06:52:43;;;;;;;107.23;43.03;;;;;;;-141.97;100.00;47874.69;5042621;28;20216;-80
2022/12/20 06:55:08;;;;;;;86.30;36.97;;;;;;;-141.97;100.00;47842.00;5049477;28;20190;-79
2022/12/20 06:57:34;;;;;;;89.33;33.87;;;;;;;-141.97;100.00;47865.06;5039885;28;20301;-79
2022/12/20 07:00:00;;;;;;;80.33;31.17;;;;;;;-141.97;97.03;47859.28;5034134;28;20190;-80
2022/12/20 07:02:25;;;;;;;68.60;28.13;;;;;;;-141.97;90.24;47888.13;5029443;28;20193;-79
2022/12/20 07:04:50;;;;;;;76.43;30.80;;;;;;;-141.97;86.82;47903.50;5029859;28;20188;-79
2022/12/20 07:07:16;;;;;;;74.60;29.70;;;;;;;-141.97;81.38;47920.81;5031060;28;20279;-80
2022/12/20 07:09:41;;;;;;;83.07;36.60;;;;;;;-141.97;75.57;47888.13;5030854;28;20189;-80
2022/12/20 07:12:08;;;;;;;87.27;34.20;;;;;;;-141.97;52.03;47899.66;5030319;28;20258;-80
2022/12/20 07:14:33;;;;;;;126.13;51.33;;;;;;;-141.97;52.04;47865.06;5031237;28;20759;-81
2022/12/20 07:16:59;;;;;;;66.67;28.10;;;;;;;-141.97;52.49;47888.13;5030659;28;20516;-80
2022/12/20 07:19:24;;;;;;;120.47;52.33;;;;;;;-141.97;53.21;47876.59;5012934;28;20344;-83
2022/12/20 07:21:50;;;;;;;85.07;38.37;;;;;;;-141.97;52.58;47857.38;5030789;28;20776;-83
2022/12/20 07:24:15;;;;;;;43.97;19.13;;;;;;;-141.97;54.14;47866.97;5030370;28;20182;-83
2022/12/20 07:26:43;;;;;;;42.23;20.10;;;;;;;-141.97;54.78;47891.97;5029875;28;20279;-83
2022/12/20 07:29:08;;;;;;;57.13;27.27;;;;;;;-141.97;57.98;47847.75;5029484;28;20186;-84
2022/12/20 07:31:34;;;;;;;64.00;25.33;;;;;;;-141.97;63.47;47884.28;5029625;28;20440;-82
2022/12/20 07:33:59;;;;;;;38.97;16.80;;;;;;;-141.97;65.14;47840.06;5029381;28;20244;-83
2022/12/20 07:36:25;;;;;;;92.33;32.57;;;;;;;-141.97;69.52;47861.22;5029002;28;20314;-83
2022/12/20 07:38:50;;;;;;;62.43;22.40;;;;;;;-141.97;68.76;47895.81;5029586;28;20190;-81
2022/12/20 07:41:17;;;;;;;55.43;23.90;;;;;;;-141.97;67.38;47861.22;5030622;28;20185;-83
2022/12/20 07:43:43;;;;;;;72.63;30.23;;;;;;;-141.97;66.44;47895.81;5029035;28;20188;-83
2022/12/20 07:46:10;;;;;;;63.77;27.27;;;;;;;-141.97;68.01;47857.38;5029124;28;20566;-82
2022/12/20 07:48:36;;;;;;;68.47;28.63;;;;;;;-141.97;67.52;47849.69;5028802;28;20178;-84
2022/12/20 07:51:06;;;;;;;70.30;30.43;;;;;;;-141.97;67.77;47842.00;5029096;28;20444;-84
2022/12/20 07:53:35;;;;;;;90.60;32.13;;;;;;;-141.97;69.84;47847.75;5048522;28;20260;-83
2022/12/20 07:56:04;;;;;;;61.10;23.33;;;;;;;-141.97;68.46;47822.78;5044748;28;20471;-80
2022/12/20 07:58:31;;;;;;;53.63;23.07;;;;;;;-141.97;69.27;47838.16;5016591;28;21082;-84
2022/12/20 08:00:57;;;;;;;56.20;24.63;;;;;;;-141.97;69.03;47842.00;5009469;28;20433;-84
2022/12/20 08:03:31;;;;;;;61.50;26.87;;;;;;;-141.97;68.16;47859.28;5009352;28;20429;-80
2022/12/20 08:06:02;;;;;;;80.07;33.60;;;;;;;-141.97;66.93;47828.53;5009582;28;20701;-81
2022/12/20 08:08:30;;;;;;;66.90;30.67;;;;;;;-141.97;66.52;47868.91;5009683;28;20512;-82
2022/12/20 08:10:56;;;;;;;61.20;30.53;;;;;;;-141.97;65.24;47818.94;5010127;28;20430;-85
2022/12/20 08:13:22;;;;;;;64.57;30.20;;;;;;;-141.97;64.99;47865.06;5009383;28;20513;-82
2022/12/20 08:15:48;;;;;;;54.10;25.13;;;;;;;-141.97;63.94;47863.13;5009559;28;20187;-82
2022/12/20 08:18:15;;;;;;;48.17;20.30;;;;;;;-141.97;63.71;47888.13;5008894;28;20186;-82
2022/12/20 08:20:40;;;;;;;42.30;17.67;;;;;;;-141.97;63.69;47842.00;5008752;28;20433;-82
2022/12/20 08:23:06;;;;;;;52.20;24.40;;;;;;;-141.97;62.96;47882.38;5009750;28;20441;-83
2022/12/20 08:25:33;;;;;;;51.80;22.23;;;;;;;-141.97;61.36;47870.81;5008433;28;20183;-82
2022/12/20 08:28:01;;;;;;;52.60;23.73;;;;;;;-141.97;60.11;47884.28;5008907;28;20245;-81
2022/12/20 08:30:27;;;;;;;74.93;36.70;;;;;;;-141.97;61.28;47947.72;5009367;28;20991;-82
2022/12/20 08:32:52;;;;;;;57.43;25.60;;;;;;;-141.97;61.06;47868.91;5008938;28;20457;-82
2022/12/20 08:35:17;;;;;;;68.17;25.47;;;;;;;-141.97;60.21;47845.84;5009265;28;20182;-81
2022/12/20 08:37:43;;;;;;;53.23;23.77;;;;;;;-141.97;59.27;47878.53;5009187;28;20587;-83
2022/12/20 08:40:08;;;;;;;59.17;24.93;;;;;;;-141.97;58.13;47836.22;5009522;28;20273;-82
2022/12/20 08:42:34;;;;;;;60.27;28.30;;;;;;;-141.97;58.19;47870.81;5007936;28;20186;-81
2022/12/20 08:44:59;;;;;;;50.03;21.77;;;;;;;-141.97;57.78;47868.91;5009565;28;20190;-83
2022/12/20 08:47:25;;;;;;;40.03;16.87;;;;;;;-141.97;57.42;47842.00;5007115;28;20210;-81
2022/12/20 08:49:50;;;;;;;57.77;20.07;;;;;;;-141.97;57.04;47895.81;5025021;28;20215;-82
2022/12/20 08:52:16;;;;;;;58.43;23.33;;;;;;;-141.97;56.71;47865.06;5009233;28;20686;-86
2022/12/20 08:54:41;;;;;;;93.77;23.57;;;;;;;-141.97;57.63;47882.38;5009023;28;20190;-80
2022/12/20 08:57:07;;;;;;;36.60;16.27;;;;;;;-141.97;57.46;47959.25;5009121;28;20262;-84
2022/12/20 08:59:32;;;;;;;57.07;23.37;;;;;;;-141.97;56.87;47872.75;4999944;28;20237;-82
2022/12/20 09:01:58;;;;;;;58.70;25.67;;;;;;;-141.97;57.23;47884.28;5012925;28;20557;-81
2022/12/20 09:04:23;;;;;;;68.73;26.77;;;;;;;-141.97;56.14;47895.81;5013337;28;20186;-82
2022/12/20 09:06:49;;;;;;;62.30;28.27;;;;;;;-141.97;55.21;47876.59;5012278;28;20710;-82
2022/12/20 09:09:15;;;;;;;48.03;20.03;;;;;;;-141.97;55.12;47882.38;5012823;28;20182;-82
2022/12/20 09:11:40;;;;;;;35.60;17.27;;;;;;;-141.97;54.89;47872.75;5013039;28;20174;-83
2022/12/20 09:14:07;;;;;;;43.53;20.23;;;;;;;-141.97;55.72;47868.91;5012243;28;20958;-82
2022/12/20 09:16:32;;;;;;;36.23;15.73;;;;;;;-141.97;56.83;47888.13;5012345;28;20210;-80
2022/12/20 09:19:00;;;;;;;73.57;27.17;;;;;;;-141.97;57.52;47901.59;5012810;28;20458;-82
2022/12/20 09:21:26;;;;;;;53.80;23.27;;;;;;;-141.97;56.86;47865.06;5013013;28;20181;-82
2022/12/20 09:23:54;;;;;;;50.17;21.07;;;;;;;-141.97;56.79;47868.91;5051660;28;20435;-81
2022/12/20 09:26:21;;;;;;;40.73;19.10;;;;;;;-141.97;56.28;47834.31;5047651;28;20326;-82
2022/12/20 09:28:47;;;;;;;40.20;17.03;;;;;;;-141.97;56.57;47857.38;5033698;28;20505;-82
2022/12/20 09:31:16;;;;;;;34.90;17.27;;;;;;;-141.97;57.17;47870.81;5039746;28;20436;-81
2022/12/20 09:33:42;;;;;;;50.27;22.50;;;;;;;-141.97;56.19;47874.69;5037961;28;20424;-82
2022/12/20 09:36:12;;;;;;;49.70;22.63;;;;;;;-141.97;57.26;47822.78;5033645;28;20451;-83
2022/12/20 09:38:37;;;;;;;40.13;17.27;;;;;;;-141.97;57.08;47915.03;5033129;28;20214;-84
2022/12/20 09:41:05;;;;;;;46.23;19.07;;;;;;;-141.97;55.70;47870.81;5032966;28;20511;-81
2022/12/20 09:43:32;;;;;;;48.40;17.33;;;;;;;-141.97;56.92;47882.38;5032610;28;20181;-82
2022/12/20 09:46:00;;;;;;;63.00;24.57;;;;;;;-141.97;55.96;47897.75;5031572;28;20500;-81
2022/12/20 09:48:37;;;;;;;52.23;19.50;;;;;;;-141.97;55.03;47865.06;5032612;28;20538;-83
2022/12/20 09:51:09;;;;;;;61.87;17.77;;;;;;;-141.97;54.24;47859.28;5042343;28;20439;-83
2022/12/20 09:53:50;;;;;;;36.67;16.83;;;;;;;-141.97;53.87;47851.59;5073603;28;20510;-80
2022/12/20 09:56:58;;;;;;;73.63;34.87;;;;;;;-141.97;53.48;47872.75;5070641;28;20442;-82
2022/12/20 09:59:24;;;;;;;50.80;22.37;;;;;;;-141.97;53.51;47838.16;4960933;29;20880;-82
2022/12/20 10:01:50;;;;;;;75.97;29.70;;;;;;;-141.97;52.35;47865.06;4961255;29;20948;-82
2022/12/20 10:04:20;;;;;;;31.83;14.77;;;;;;;-141.97;52.82;47872.75;4955317;29;20204;-83
2022/12/20 10:07:07;;;;;;;59.23;19.90;;;;;;;-141.97;52.07;47874.69;4951764;29;20820;-83
2022/12/20 10:10:00;;;;;;;26.43;10.33;;;;;;;-141.97;52.56;47842.00;4952605;29;20436;-82
2022/12/20 10:12:39;;;;;;;33.63;14.33;;;;;;;-141.97;53.89;47824.69;4970578;28;20516;-82
2022/12/20 10:15:21;;;;;;;29.90;14.00;;;;;;;-141.97;52.17;47815.09;4950151;29;20539;-84
2022/12/20 10:18:05;;;;;;;22.77;10.53;;;;;;;-141.97;52.06;47849.69;4957086;29;20493;-84
2022/12/20 10:20:55;;;;;;;28.00;12.53;;;;;;;-141.97;53.01;47836.22;4955437;29;20436;-83
2022/12/20 10:23:24;;;;;;;31.23;15.27;;;;;;;-141.97;52.83;47897.75;4957920;28;20446;-82
2022/12/20 10:25:55;;;;;;;23.27;11.00;;;;;;;-141.97;52.36;47880.44;4958674;28;20475;-80
2022/12/20 10:28:28;;;;;;;23.47;10.90;;;;;;;-141.97;51.59;47859.28;4942208;28;20453;-83
2022/12/20 10:31:00;;;;;;;24.20;10.50;;;;;;;-141.97;51.70;47849.69;4950423;29;20432;-82
2022/12/20 10:33:26;;;;;;;51.03;11.77;;;;;;;-141.97;53.65;47834.31;4950426;29;20440;-82
2022/12/20 10:35:52;;;;;;;29.20;13.40;;;;;;;-141.97;52.95;47868.91;4998050;28;20515;-82
2022/12/20 10:38:19;;;;;;;25.40;12.33;;;;;;;-141.97;53.34;47859.28;5010606;28;20634;-82
2022/12/20 10:41:02;;;;;;;27.37;12.50;;;;;;;-141.97;52.43;47834.31;5029392;28;20214;-83
2022/12/20 10:43:42;;;;;;;26.13;11.77;;;;;;;-141.97;51.64;47868.91;5029470;28;20448;-83
2022/12/20 10:46:09;;;;;;;31.13;13.17;;;;;;;-141.97;51.69;47830.47;5028132;28;20567;-81
2022/12/20 10:48:38;;;;;;;55.20;20.23;;;;;;;-141.97;50.99;47866.97;5028500;28;20502;-83
2022/12/20 10:51:09;;;;;;;34.43;15.43;;;;;;;-141.97;50.41;47822.78;5028263;28;20429;-82
2022/12/20 10:53:36;;;;;;;47.13;20.40;;;;;;;-141.97;50.43;47868.91;5047798;28;20976;-83
2022/12/20 10:56:11;;;;;;;90.60;32.60;;;;;;;-141.97;50.94;47874.69;5043068;28;20504;-82
2022/12/20 10:58:37;;;;;;;48.53;18.37;;;;;;;-141.97;50.84;47826.63;5018835;28;20225;-83
2022/12/20 11:01:09;;;;;;;31.80;15.10;;;;;;;-141.97;50.35;47865.06;5028162;28;20174;-82
2022/12/20 11:03:52;;;;;;;44.33;19.27;;;;;;;-141.97;50.43;47866.97;5028461;28;20182;-80
2022/12/20 11:06:20;;;;;;;36.33;17.93;;;;;;;-141.97;51.13;47857.38;5020370;28;20296;-81
2022/12/20 11:08:47;;;;;;;52.17;22.90;;;;;;;-141.97;51.75;47826.63;5008340;28;20183;-82